Time;durP1;ratioP1;P1;durP2;ratioP2;P2;SDS_P1;SDS_P2;PMS_P1;PMS_P2;Temp;Humidity;BMP_temperature;BMP_pressure;BME280_temperature;BME280_humidity;BME280_pressure;Samples;Min_cycle;Max_cycle;Signal;HPM_P1;HPM_P2
2023/01/13 00:01:23;;;;;;;0.00;0.00;;;8.80;99.90;;;;;;5030535;28;20025;-70
2023/01/13 00:03:49;;;;;;;0.00;0.00;;;8.90;99.90;;;;;;5030496;28;20037;-71
2023/01/13 00:06:18;;;;;;;0.00;0.00;;;8.90;99.90;;;;;;5026165;28;20021;-71
2023/01/13 00:08:46;;;;;;;0.00;0.00;;;8.90;99.90;;;;;;5027107;28;20127;-70
2023/01/13 00:11:12;;;;;;;0.00;0.00;;;8.90;99.90;;;;;;5030524;28;20502;-71
2023/01/13 00:13:37;;;;;;;0.00;0.00;;;8.90;99.90;;;;;;5029566;28;20022;-71
2023/01/13 00:16:05;;;;;;;0.00;0.00;;;8.80;99.90;;;;;;5032386;28;20055;-70
2023/01/13 00:18:32;;;;;;;0.00;0.00;;;8.80;99.90;;;;;;5031871;28;20132;-70
2023/01/13 00:20:59;;;;;;;0.00;0.00;;;8.80;99.90;;;;;;5031684;28;20102;-71
2023/01/13 00:23:25;;;;;;;;;;;8.70;99.90;;;;;;5032635;28;20035;-70
2023/01/13 00:25:54;;;;;;;0.00;0.00;;;8.70;99.90;;;;;;5029826;28;19931;-71
2023/01/13 00:28:20;;;;;;;0.00;0.00;;;8.60;99.90;;;;;;5028252;28;20109;-71
2023/01/13 00:30:46;;;;;;;0.00;0.00;;;8.60;99.90;;;;;;5031407;28;20127;-71
2023/01/13 00:33:11;;;;;;;0.00;0.00;;;8.60;99.90;;;;;;5036304;28;20561;-71
2023/01/13 00:35:37;;;;;;;0.00;0.00;;;8.60;99.90;;;;;;5029783;28;20110;-71
2023/01/13 00:38:02;;;;;;;0.00;0.00;;;8.50;99.90;;;;;;5029703;28;20508;-71
2023/01/13 00:40:28;;;;;;;0.00;0.00;;;8.50;99.90;;;;;;5028913;28;20725;-71
2023/01/13 00:45:38;;;;;;;0.00;0.00;;;8.40;99.90;;;;;;5029482;28;20079;-70
2023/01/13 00:48:03;;;;;;;0.00;0.00;;;8.30;99.90;;;;;;5029856;28;20014;-70
2023/01/13 00:50:29;;;;;;;0.00;0.00;;;8.30;99.90;;;;;;5030498;28;20105;-71
2023/01/13 00:52:59;;;;;;;0.00;0.00;;;8.30;99.90;;;;;;5029331;28;20056;-71
2023/01/13 00:55:24;;;;;;;0.00;0.00;;;8.20;99.90;;;;;;5025644;28;20029;-71
2023/01/13 00:57:50;;;;;;;0.00;0.00;;;8.20;99.90;;;;;;5024917;28;20528;-71
2023/01/13 01:00:18;;;;;;;0.00;0.00;;;8.20;99.90;;;;;;5027954;28;20021;-70
2023/01/13 01:02:43;;;;;;;0.00;0.00;;;8.20;99.90;;;;;;5030619;28;20036;-70
2023/01/13 01:05:10;;;;;;;0.00;0.00;;;8.20;99.90;;;;;;5031685;28;20029;-70
2023/01/13 01:07:35;;;;;;;0.00;0.00;;;8.20;99.90;;;;;;5044265;28;20083;-70
2023/01/13 01:10:01;;;;;;;0.00;0.00;;;8.10;99.90;;;;;;5030623;28;20485;-70
2023/01/13 01:12:27;;;;;;;0.00;0.00;;;8.00;99.90;;;;;;5025614;28;20044;-70
2023/01/13 01:14:52;;;;;;;0.00;0.00;;;8.00;99.90;;;;;;5027451;28;20029;-70
2023/01/13 01:17:18;;;;;;;0.00;0.00;;;8.00;99.90;;;;;;5028610;28;20029;-70
2023/01/13 01:19:44;;;;;;;0.00;0.00;;;8.00;99.90;;;;;;5026783;28;20033;-71
2023/01/13 01:22:09;;;;;;;0.00;0.00;;;7.90;99.90;;;;;;5024862;28;20303;-70
2023/01/13 01:24:35;;;;;;;0.00;0.00;;;7.90;99.90;;;;;;5022885;28;20029;-71
2023/01/13 01:27:01;;;;;;;0.00;0.00;;;8.00;99.90;;;;;;5027677;28;20075;-70
2023/01/13 01:29:26;;;;;;;0.00;0.00;;;8.10;99.90;;;;;;5026821;28;20463;-70
2023/01/13 01:31:52;;;;;;;0.00;0.00;;;8.10;99.90;;;;;;5053454;28;20040;-71
2023/01/13 01:34:18;;;;;;;0.00;0.00;;;8.10;99.90;;;;;;5026089;28;20145;-71
2023/01/13 01:36:43;;;;;;;0.00;0.00;;;8.20;99.90;;;;;;5025125;28;20041;-70
2023/01/13 01:39:09;;;;;;;0.00;0.00;;;8.20;99.90;;;;;;5031800;28;20064;-70
2023/01/13 01:41:36;;;;;;;0.00;0.00;;;8.20;99.90;;;;;;5024426;28;20112;-71
2023/01/13 01:44:28;;;;;;;0.00;0.00;;;8.20;99.90;;;;;;5028194;28;20477;-70
2023/01/13 01:46:55;;;;;;;0.00;0.00;;;8.10;99.90;;;;;;5013146;28;20094;-71
2023/01/13 01:49:32;;;;;;;0.00;0.00;;;8.10;99.90;;;;;;5031224;28;20053;-70
2023/01/13 01:52:05;;;;;;;;;;;8.00;99.90;;;;;;5025764;28;20033;-71
2023/01/13 01:54:41;;;;;;;0.00;0.00;;;7.90;99.90;;;;;;5026670;28;19905;-70
2023/01/13 01:57:10;;;;;;;0.00;0.00;;;7.90;99.90;;;;;;5024537;28;20025;-71
2023/01/13 01:59:37;;;;;;;0.00;0.00;;;7.80;99.90;;;;;;5024029;28;20607;-70
2023/01/13 02:02:03;;;;;;;0.00;0.00;;;7.60;99.90;;;;;;5029491;28;20451;-70
2023/01/13 02:04:33;;;;;;;0.00;0.00;;;7.50;99.90;;;;;;5025686;28;20040;-71
2023/01/13 02:07:00;;;;;;;0.00;0.00;;;7.40;99.90;;;;;;5027264;28;20120;-71
2023/01/13 02:09:25;;;;;;;;;;;7.50;99.90;;;;;;5024581;28;20510;-70
2023/01/13 02:14:39;;;;;;;0.00;0.00;;;7.30;99.90;;;;;;5030787;28;20064;-70
2023/01/13 02:17:20;;;;;;;0.00;0.00;;;7.10;99.90;;;;;;5034019;28;20108;-71
2023/01/13 02:19:54;;;;;;;0.00;0.00;;;7.10;99.90;;;;;;5028715;28;20110;-71
2023/01/13 02:22:44;;;;;;;0.00;0.00;;;7.00;99.90;;;;;;5029800;28;20060;-71
2023/01/13 02:25:33;;;;;;;0.00;0.00;;;7.00;99.90;;;;;;5045403;28;20112;-70
2023/01/13 02:28:26;;;;;;;0.00;0.00;;;7.00;99.90;;;;;;5025772;28;20041;-70
2023/01/13 02:34:05;;;;;;;0.22;0.10;;;6.90;99.90;;;;;;5024401;28;20067;-70
2023/01/13 02:37:02;;;;;;;0.00;0.00;;;6.90;99.90;;;;;;5028617;28;20043;-71
2023/01/13 02:40:08;;;;;;;0.00;0.00;;;7.00;99.90;;;;;;5080579;28;21274;-70
2023/01/13 02:45:30;;;;;;;0.00;0.00;;;6.90;99.90;;;;;;5078735;28;20027;-70
2023/01/13 02:47:58;;;;;;;0.00;0.00;;;6.80;99.90;;;;;;5079941;28;20024;-70
2023/01/13 02:50:38;;;;;;;0.00;0.00;;;7.00;99.90;;;;;;5079526;28;20020;-70
2023/01/13 02:53:23;;;;;;;0.00;0.00;;;7.00;99.90;;;;;;5080710;28;20027;-71
2023/01/13 02:55:52;;;;;;;0.00;0.00;;;7.20;99.90;;;;;;5068512;28;20500;-70
2023/01/13 02:58:25;;;;;;;0.00;0.00;;;7.40;99.90;;;;;;5078157;28;20150;-70
2023/01/13 03:00:51;;;;;;;0.00;0.00;;;7.50;99.90;;;;;;5078852;28;20396;-70
2023/01/13 03:03:17;;;;;;;0.00;0.00;;;7.60;99.90;;;;;;5079843;28;20016;-70
2023/01/13 03:05:45;;;;;;;0.00;0.00;;;7.70;99.90;;;;;;5078888;28;20720;-70
2023/01/13 03:08:17;;;;;;;0.00;0.00;;;7.80;99.90;;;;;;5079184;28;20105;-70
2023/01/13 03:11:08;;;;;;;0.00;0.00;;;7.80;99.90;;;;;;5078132;28;20032;-70
2023/01/13 03:13:57;;;;;;;0.00;0.00;;;7.60;99.90;;;;;;5077528;28;20020;-69
2023/01/13 03:16:23;;;;;;;0.00;0.00;;;7.40;99.90;;;;;;5077924;28;20165;-70
2023/01/13 03:19:20;;;;;;;0.00;0.00;;;7.30;99.90;;;;;;5079632;28;20527;-71
2023/01/13 03:22:04;;;;;;;0.00;0.00;;;7.20;99.90;;;;;;5062204;28;20036;-71
2023/01/13 03:24:48;;;;;;;0.00;0.00;;;7.20;99.90;;;;;;5059279;28;20043;-70
2023/01/13 03:27:29;;;;;;;0.00;0.00;;;7.10;99.90;;;;;;5058066;28;20107;-70
2023/01/13 03:30:00;;;;;;;0.00;0.00;;;7.20;99.90;;;;;;5058174;28;20013;-71
2023/01/13 03:32:42;;;;;;;0.00;0.00;;;7.20;99.90;;;;;;5056866;28;20027;-70
2023/01/13 03:35:40;;;;;;;0.00;0.00;;;7.30;99.90;;;;;;5058479;28;20425;-70
2023/01/13 03:38:17;;;;;;;0.00;0.00;;;7.40;99.90;;;;;;5059060;28;20025;-70
2023/01/13 03:40:49;;;;;;;0.00;0.00;;;7.50;99.90;;;;;;5058233;28;20115;-70
2023/01/13 03:46:14;;;;;;;0.00;0.00;;;7.70;99.90;;;;;;5056632;28;20032;-70
2023/01/13 03:48:41;;;;;;;0.00;0.00;;;7.70;99.90;;;;;;5057830;28;20154;-70
2023/01/13 03:51:14;;;;;;;0.00;0.00;;;7.70;99.90;;;;;;5044341;28;20029;-70
2023/01/13 03:53:48;;;;;;;0.00;0.00;;;7.50;99.90;;;;;;5047659;28;20072;-71
2023/01/13 03:56:26;;;;;;;0.00;0.00;;;7.50;99.90;;;;;;5044794;28;20061;-70
2023/01/13 03:58:52;;;;;;;;;;;7.50;99.90;;;;;;5045481;28;20025;-71
2023/01/13 04:01:23;;;;;;;0.00;0.00;;;7.50;99.90;;;;;;5060565;28;19994;-68
2023/01/13 04:03:54;;;;;;;0.00;0.00;;;7.40;99.90;;;;;;5044131;28;20925;-70
2023/01/13 04:06:47;;;;;;;0.00;0.00;;;7.40;99.90;;;;;;5044237;28;20029;-70
2023/01/13 04:09:19;;;;;;;0.00;0.00;;;7.30;99.90;;;;;;5044601;28;20127;-71
2023/01/13 04:11:53;;;;;;;0.00;0.00;;;7.20;99.90;;;;;;5044457;28;20138;-70
2023/01/13 04:14:20;;;;;;;0.00;0.00;;;7.10;99.90;;;;;;5045407;28;20102;-70
2023/01/13 04:16:47;;;;;;;0.00;0.00;;;7.00;99.90;;;;;;5044621;28;20029;-70
2023/01/13 04:19:13;;;;;;;0.00;0.00;;;6.90;99.90;;;;;;5045446;28;20082;-70
2023/01/13 04:21:39;;;;;;;0.00;0.00;;;7.00;99.90;;;;;;5044823;28;20060;-70
2023/01/13 04:24:05;;;;;;;0.00;0.00;;;6.90;99.90;;;;;;5045157;28;20096;-70
2023/01/13 04:26:30;;;;;;;0.00;0.00;;;7.00;99.90;;;;;;5043473;28;20425;-70
2023/01/13 04:28:56;;;;;;;0.00;0.00;;;7.00;99.90;;;;;;5045137;28;20033;-70
2023/01/13 04:31:21;;;;;;;0.00;0.00;;;7.10;99.90;;;;;;5044387;28;20036;-70
2023/01/13 04:33:47;;;;;;;0.00;0.00;;;7.10;99.90;;;;;;5045058;28;20422;-70
2023/01/13 04:36:14;;;;;;;0.00;0.00;;;7.20;99.90;;;;;;5044852;28;20032;-71
2023/01/13 04:38:40;;;;;;;0.00;0.00;;;7.20;99.90;;;;;;5044828;28;20029;-70
2023/01/13 04:41:05;;;;;;;0.00;0.00;;;7.20;99.90;;;;;;5042671;28;20028;-71
2023/01/13 04:43:31;;;;;;;0.00;0.00;;;7.20;99.90;;;;;;5044449;28;20016;-71
2023/01/13 04:45:57;;;;;;;0.00;0.00;;;7.30;99.90;;;;;;5042353;28;20025;-70
2023/01/13 04:48:22;;;;;;;0.00;0.00;;;7.30;99.90;;;;;;5044311;28;20025;-71
2023/01/13 04:50:48;;;;;;;0.00;0.00;;;7.30;99.90;;;;;;5044667;28;20032;-71
2023/01/13 04:53:13;;;;;;;0.00;0.00;;;7.40;99.90;;;;;;5044221;28;20028;-70
2023/01/13 04:55:39;;;;;;;0.10;0.10;;;7.30;99.90;;;;;;5044451;28;20024;-70
2023/01/13 04:58:08;;;;;;;0.00;0.00;;;7.30;99.90;;;;;;5044133;28;20031;-70
2023/01/13 05:00:34;;;;;;;0.00;0.00;;;7.20;99.90;;;;;;5041034;28;20025;-70
2023/01/13 05:03:00;;;;;;;0.00;0.00;;;7.20;99.90;;;;;;5043328;28;20024;-70
2023/01/13 05:05:27;;;;;;;0.00;0.00;;;7.10;99.90;;;;;;5044106;28;20131;-70
2023/01/13 05:07:53;;;;;;;0.00;0.00;;;7.10;99.90;;;;;;5044284;28;20020;-70
2023/01/13 05:10:19;;;;;;;0.00;0.00;;;7.10;99.90;;;;;;5043203;28;20081;-71
2023/01/13 05:18:15;;;;;;;0.00;0.00;;;7.00;99.90;;;;;;5043672;28;20028;-70
2023/01/13 05:20:41;;;;;;;0.00;0.00;;;7.00;99.90;;;;;;5043053;28;20061;-70
2023/01/13 05:25:51;;;;;;;0.08;0.08;;;6.90;99.90;;;;;;5044241;28;20089;-69
2023/01/13 05:28:17;;;;;;;0.00;0.00;;;6.90;99.90;;;;;;5044628;28;20036;-71
2023/01/13 05:30:45;;;;;;;0.00;0.00;;;6.80;99.90;;;;;;5043080;28;20078;-70
2023/01/13 05:33:13;;;;;;;0.00;0.00;;;6.80;99.90;;;;;;5042117;28;20048;-71
2023/01/13 05:35:44;;;;;;;0.00;0.00;;;6.80;99.90;;;;;;5045123;28;20020;-71
2023/01/13 05:38:10;;;;;;;0.00;0.00;;;6.80;99.90;;;;;;5043261;28;20516;-70
2023/01/13 05:43:24;;;;;;;0.00;0.00;;;6.80;99.90;;;;;;5045021;28;19970;-70
2023/01/13 05:45:57;;;;;;;0.00;0.00;;;6.80;99.90;;;;;;5043439;28;20021;-70
2023/01/13 05:48:28;;;;;;;0.00;0.00;;;6.70;99.90;;;;;;5041949;28;20029;-70
2023/01/13 05:50:54;;;;;;;0.00;0.00;;;6.50;99.90;;;;;;5041346;28;20082;-71
2023/01/13 05:53:21;;;;;;;0.00;0.00;;;6.50;99.90;;;;;;5043735;28;20057;-71
2023/01/13 05:55:47;;;;;;;0.10;0.10;;;6.50;99.90;;;;;;5044552;28;20040;-70
2023/01/13 05:58:14;;;;;;;0.00;0.00;;;6.40;99.90;;;;;;5043817;28;20029;-71
2023/01/13 06:00:42;;;;;;;0.00;0.00;;;6.30;99.90;;;;;;5042352;28;20452;-71
2023/01/13 06:03:07;;;;;;;0.00;0.00;;;6.30;99.90;;;;;;5041727;28;20013;-71
2023/01/13 06:05:34;;;;;;;0.00;0.00;;;6.30;99.90;;;;;;5042512;28;20374;-70
2023/01/13 06:08:01;;;;;;;0.00;0.00;;;6.30;99.90;;;;;;5042682;28;20028;-71
2023/01/13 06:10:28;;;;;;;0.00;0.00;;;6.30;99.90;;;;;;5043172;28;20037;-70
2023/01/13 06:12:54;;;;;;;0.00;0.00;;;6.30;99.90;;;;;;5042558;28;21407;-71
2023/01/13 06:15:20;;;;;;;0.00;0.00;;;6.30;99.90;;;;;;5041991;28;20029;-70
2023/01/13 06:17:47;;;;;;;0.00;0.00;;;6.30;99.90;;;;;;5041880;28;20025;-70
2023/01/13 06:20:13;;;;;;;0.00;0.00;;;6.30;99.90;;;;;;5042183;28;20033;-70
2023/01/13 06:22:42;;;;;;;0.00;0.00;;;6.30;99.90;;;;;;5041503;28;20017;-70
2023/01/13 06:25:38;;;;;;;0.00;0.00;;;6.20;99.90;;;;;;5042399;28;20028;-71
2023/01/13 06:28:04;;;;;;;0.00;0.00;;;6.10;99.90;;;;;;5041916;28;20048;-70
2023/01/13 06:30:37;;;;;;;0.00;0.00;;;6.00;99.90;;;;;;5042741;28;20350;-70
2023/01/13 06:33:06;;;;;;;0.00;0.00;;;5.90;99.90;;;;;;5041039;28;20103;-69
2023/01/13 06:35:35;;;;;;;0.00;0.00;;;5.80;99.90;;;;;;5042547;28;20827;-69
2023/01/13 06:38:04;;;;;;;0.00;0.00;;;5.90;99.90;;;;;;5042975;28;20041;-69
2023/01/13 06:40:29;;;;;;;0.00;0.00;;;5.90;99.90;;;;;;5042957;28;20031;-69
2023/01/13 06:43:15;;;;;;;0.07;0.07;;;5.90;99.90;;;;;;5040433;28;20362;-70
2023/01/13 06:45:54;;;;;;;0.00;0.00;;;5.90;99.90;;;;;;5040166;28;20045;-69
2023/01/13 06:48:38;;;;;;;0.00;0.00;;;6.00;99.90;;;;;;5042089;28;20044;-69
2023/01/13 06:51:04;;;;;;;0.00;0.00;;;6.20;99.90;;;;;;5040832;28;20051;-69
2023/01/13 06:53:30;;;;;;;0.00;0.00;;;6.20;99.90;;;;;;5041568;28;20028;-69
2023/01/13 06:55:56;;;;;;;0.00;0.00;;;6.20;99.90;;;;;;5042167;28;20033;-68
2023/01/13 06:58:21;;;;;;;0.00;0.00;;;6.20;99.90;;;;;;5042374;28;20028;-69
2023/01/13 07:00:50;;;;;;;0.00;0.00;;;6.20;99.90;;;;;;5041607;28;20021;-69
2023/01/13 07:03:16;;;;;;;0.00;0.00;;;6.20;99.90;;;;;;5041569;28;20100;-69
2023/01/13 07:05:51;;;;;;;0.00;0.00;;;6.10;99.90;;;;;;5040024;28;20032;-69
2023/01/13 07:08:17;;;;;;;0.00;0.00;;;6.20;99.90;;;;;;5041556;28;20021;-68
2023/01/13 07:10:43;;;;;;;0.00;0.00;;;6.20;99.90;;;;;;5040708;28;20032;-69
2023/01/13 07:16:01;;;;;;;0.20;0.10;;;6.40;99.90;;;;;;5041718;28;20040;-69
2023/01/13 07:18:30;;;;;;;0.00;0.00;;;6.50;99.90;;;;;;5039911;28;20029;-69
2023/01/13 07:20:58;;;;;;;0.00;0.00;;;6.50;99.90;;;;;;5040649;28;20017;-69
2023/01/13 07:23:28;;;;;;;0.00;0.00;;;6.50;99.90;;;;;;5039408;28;20833;-68
2023/01/13 07:25:55;;;;;;;0.00;0.00;;;6.50;99.90;;;;;;5042342;28;20719;-69
2023/01/13 07:28:21;;;;;;;0.00;0.00;;;6.60;99.90;;;;;;5045679;28;20640;-69
2023/01/13 07:30:46;;;;;;;0.00;0.00;;;6.60;99.90;;;;;;5044870;28;20032;-70
2023/01/13 07:33:12;;;;;;;0.00;0.00;;;6.60;99.90;;;;;;5045381;28;20029;-69
2023/01/13 07:35:38;;;;;;;0.00;0.00;;;6.60;99.90;;;;;;5045357;28;20045;-69
2023/01/13 07:38:04;;;;;;;0.00;0.00;;;6.60;99.90;;;;;;5043775;28;20044;-69
2023/01/13 07:40:29;;;;;;;0.00;0.00;;;6.60;99.90;;;;;;5045761;28;20045;-70
2023/01/13 07:45:39;;;;;;;0.00;0.00;;;6.60;99.90;;;;;;5043906;28;20150;-69
2023/01/13 07:48:05;;;;;;;0.00;0.00;;;6.50;99.90;;;;;;5043035;28;20436;-69
2023/01/13 07:50:31;;;;;;;0.10;0.10;;;6.60;99.90;;;;;;5044452;28;20036;-69
2023/01/13 07:52:57;;;;;;;0.20;0.20;;;6.60;99.90;;;;;;5044528;28;20090;-70
2023/01/13 07:55:23;;;;;;;0.00;0.00;;;6.70;99.90;;;;;;5046381;28;20063;-69
2023/01/13 07:57:48;;;;;;;0.00;0.00;;;6.80;99.90;;;;;;5044718;28;20117;-69
2023/01/13 08:00:15;;;;;;;0.00;0.00;;;6.90;99.90;;;;;;5044497;28;20047;-69
2023/01/13 08:02:40;;;;;;;0.00;0.00;;;6.90;99.90;;;;;;5045751;28;20463;-69
2023/01/13 08:05:07;;;;;;;0.00;0.00;;;6.90;99.90;;;;;;5046425;28;20047;-68
2023/01/13 08:07:32;;;;;;;0.00;0.00;;;6.90;99.90;;;;;;5045196;28;20500;-69
2023/01/13 08:09:58;;;;;;;0.20;0.20;;;7.00;99.90;;;;;;5045837;28;20029;-69
2023/01/13 08:15:09;;;;;;;0.00;0.00;;;7.00;99.90;;;;;;5044761;28;20036;-69
2023/01/13 08:17:35;;;;;;;0.00;0.00;;;7.00;99.90;;;;;;5044108;28;20025;-69
2023/01/13 08:20:02;;;;;;;0.00;0.00;;;7.10;99.90;;;;;;5046089;28;20182;-69
2023/01/13 08:22:29;;;;;;;0.00;0.00;;;7.10;99.90;;;;;;5045481;28;20100;-69
2023/01/13 08:24:55;;;;;;;0.28;0.28;;;7.10;99.90;;;;;;5043284;28;20462;-69
2023/01/13 08:27:21;;;;;;;0.00;0.00;;;7.20;99.90;;;;;;5045525;28;20014;-69
2023/01/13 08:29:47;;;;;;;0.37;0.37;;;7.30;99.90;;;;;;5045403;28;20585;-69
2023/01/13 08:32:12;;;;;;;0.00;0.00;;;7.40;99.90;;;;;;5042696;28;20051;-69
2023/01/13 08:34:38;;;;;;;1.30;1.30;;;7.50;99.90;;;;;;5043578;28;20021;-69
2023/01/13 08:37:04;;;;;;;0.00;0.00;;;7.60;99.90;;;;;;5043487;28;20032;-69
2023/01/13 08:39:29;;;;;;;0.13;0.13;;;7.70;99.90;;;;;;5043726;28;20470;-69
2023/01/13 08:41:55;;;;;;;0.00;0.00;;;7.80;99.90;;;;;;5043445;28;21369;-69
2023/01/13 08:44:25;;;;;;;0.00;0.00;;;7.80;99.90;;;;;;5043184;28;20025;-69
2023/01/13 08:46:50;;;;;;;0.00;0.00;;;7.90;99.90;;;;;;5043146;28;20021;-69
2023/01/13 08:49:16;;;;;;;0.00;0.00;;;8.00;99.90;;;;;;5043751;28;20506;-69
2023/01/13 08:51:43;;;;;;;0.00;0.00;;;8.10;99.90;;;;;;5044397;28;20028;-70
2023/01/13 08:54:09;;;;;;;0.00;0.00;;;8.10;99.90;;;;;;5044392;28;20037;-69
2023/01/13 08:56:34;;;;;;;0.00;0.00;;;8.30;99.90;;;;;;5043756;28;20024;-69
2023/01/13 08:59:01;;;;;;;0.00;0.00;;;8.40;99.90;;;;;;5043059;28;20029;-69
2023/01/13 09:01:26;;;;;;;0.00;0.00;;;8.60;99.90;;;;;;5043768;28;20017;-69
2023/01/13 09:03:53;;;;;;;0.10;0.10;;;8.50;99.90;;;;;;5043517;28;20035;-69
2023/01/13 09:06:18;;;;;;;0.00;0.00;;;8.60;99.90;;;;;;5042478;28;20389;-69
2023/01/13 09:08:45;;;;;;;0.00;0.00;;;8.70;99.90;;;;;;5043578;28;20033;-69
2023/01/13 09:14:18;;;;;;;0.00;0.00;;;8.70;99.90;;;;;;5044356;28;20513;-69
2023/01/13 09:16:44;;;;;;;0.00;0.00;;;8.70;99.90;;;;;;5043285;28;20040;-69
2023/01/13 09:19:09;;;;;;;0.00;0.00;;;8.70;99.90;;;;;;5042553;28;20554;-69
2023/01/13 09:21:35;;;;;;;0.00;0.00;;;8.80;99.90;;;;;;5042222;28;20025;-69
2023/01/13 09:24:01;;;;;;;0.00;0.00;;;8.80;99.90;;;;;;5042752;28;20017;-69
2023/01/13 09:26:26;;;;;;;0.20;0.20;;;8.70;99.90;;;;;;5043456;28;20706;-70
2023/01/13 09:28:52;;;;;;;0.00;0.00;;;8.60;99.90;;;;;;5043795;28;20387;-70
2023/01/13 09:31:17;;;;;;;0.00;0.00;;;8.60;99.90;;;;;;5043467;28;21600;-69
2023/01/13 09:36:27;;;;;;;0.00;0.00;;;8.30;99.90;;;;;;5042943;28;21385;-69
2023/01/13 09:38:53;;;;;;;0.10;0.10;;;8.20;99.90;;;;;;5041404;28;20033;-68
2023/01/13 09:44:12;;;;;;;0.17;0.17;;;8.00;99.90;;;;;;5042742;28;20035;-69
2023/01/13 09:46:47;;;;;;;0.00;0.00;;;8.00;99.90;;;;;;5040655;28;20029;-69
2023/01/13 09:49:20;;;;;;;0.00;0.00;;;8.10;99.90;;;;;;5040826;28;20164;-69
2023/01/13 09:52:09;;;;;;;0.00;0.00;;;8.20;99.90;;;;;;5041441;28;20436;-69
2023/01/13 09:54:42;;;;;;;0.00;0.00;;;8.30;99.90;;;;;;5041081;28;20017;-69
2023/01/13 09:57:11;;;;;;;0.00;0.00;;;8.30;99.90;;;;;;5041592;28;20029;-69
2023/01/13 09:59:37;;;;;;;0.43;0.43;;;8.40;99.90;;;;;;5042177;28;20021;-69
2023/01/13 10:02:43;;;;;;;0.00;0.00;;;8.50;99.90;;;;;;5042274;28;20017;-69
2023/01/13 10:05:37;;;;;;;0.00;0.00;;;8.60;99.90;;;;;;5042492;28;20421;-69
2023/01/13 10:08:15;;;;;;;0.00;0.00;;;8.60;99.90;;;;;;5040734;28;20023;-70
2023/01/13 10:10:46;;;;;;;0.00;0.00;;;8.60;99.90;;;;;;5041050;28;20040;-68
2023/01/13 10:13:26;;;;;;;0.00;0.00;;;8.50;99.90;;;;;;5042134;28;20613;-69
2023/01/13 10:16:06;;;;;;;0.15;0.15;;;8.60;99.90;;;;;;5042176;28;20032;-69
2023/01/13 10:18:40;;;;;;;0.00;0.00;;;8.60;99.90;;;;;;5037667;28;20031;-69
2023/01/13 10:21:06;;;;;;;0.00;0.00;;;8.50;99.90;;;;;;5040058;28;20075;-69
2023/01/13 10:23:36;;;;;;;0.00;0.00;;;8.50;99.90;;;;;;5042007;28;20021;-68
2023/01/13 10:26:05;;;;;;;0.00;0.00;;;8.50;99.90;;;;;;5042334;28;20031;-70
2023/01/13 10:28:30;;;;;;;0.00;0.00;;;8.60;99.90;;;;;;5040901;28;20513;-69
2023/01/13 10:30:57;;;;;;;0.00;0.00;;;8.60;99.90;;;;;;5041387;28;20033;-69
2023/01/13 10:33:29;;;;;;;;;;;8.70;99.90;;;;;;5042482;28;20024;-70
2023/01/13 10:36:11;;;;;;;0.00;0.00;;;8.60;99.90;;;;;;5039490;28;19905;-69
2023/01/13 10:38:48;;;;;;;0.00;0.00;;;8.90;99.90;;;;;;5038166;28;20035;-69
2023/01/13 10:41:13;;;;;;;;;;;9.70;99.90;;;;;;5041243;28;20573;-69
2023/01/13 10:43:42;;;;;;;0.00;0.00;;;10.90;99.90;;;;;;5042684;28;19913;-69
2023/01/13 10:46:16;;;;;;;0.00;0.00;;;11.80;99.90;;;;;;5042712;28;20021;-70
2023/01/13 10:48:55;;;;;;;0.10;0.10;;;12.00;99.90;;;;;;5045223;28;20024;-73
2023/01/13 10:51:38;;;;;;;0.00;0.00;;;11.60;99.90;;;;;;5044454;28;20021;-72
2023/01/13 10:54:14;;;;;;;0.03;0.03;;;11.20;99.90;;;;;;5042316;28;20051;-72
2023/01/13 10:56:43;;;;;;;0.00;0.00;;;11.00;99.90;;;;;;5044772;28;20481;-72
2023/01/13 10:59:26;;;;;;;0.00;0.00;;;11.20;99.90;;;;;;5044389;28;20056;-71
2023/01/13 11:02:11;;;;;;;0.00;0.00;;;11.30;99.90;;;;;;5045687;28;20029;-72
2023/01/13 11:04:41;;;;;;;0.00;0.00;;;11.00;99.90;;;;;;5046722;28;20032;-72
2023/01/13 11:07:34;;;;;;;0.00;0.00;;;10.90;99.90;;;;;;5047738;28;20075;-72
2023/01/13 11:10:15;;;;;;;0.00;0.00;;;10.50;99.90;;;;;;5049448;28;20025;-73
2023/01/13 11:13:02;;;;;;;3.85;0.85;;;10.40;99.90;;;;;;5048556;28;20080;-73
2023/01/13 11:16:09;;;;;;;0.00;0.00;;;10.50;99.90;;;;;;5048174;28;20056;-73
2023/01/13 11:19:10;;;;;;;0.00;0.00;;;10.70;99.90;;;;;;5046723;28;20086;-73
2023/01/13 11:21:39;;;;;;;0.00;0.00;;;11.00;99.90;;;;;;5046553;28;20669;-66
2023/01/13 11:24:13;;;;;;;0.00;0.00;;;10.90;99.90;;;;;;5046276;28;20021;-71
2023/01/13 11:26:50;;;;;;;0.00;0.00;;;11.10;99.90;;;;;;5047272;28;20025;-71
2023/01/13 11:29:24;;;;;;;0.00;0.00;;;11.30;99.90;;;;;;5047676;28;20028;-71
2023/01/13 11:31:59;;;;;;;0.00;0.00;;;11.10;99.90;;;;;;5046841;28;20059;-71
2023/01/13 11:34:38;;;;;;;0.55;0.10;;;10.90;99.90;;;;;;5047336;28;20044;-71
2023/01/13 11:37:12;;;;;;;0.00;0.00;;;10.80;99.90;;;;;;5047591;28;20589;-71
2023/01/13 11:39:52;;;;;;;0.90;0.28;;;10.70;99.90;;;;;;5046490;28;20031;-71
2023/01/13 11:42:40;;;;;;;0.00;0.00;;;10.40;99.90;;;;;;5045555;28;20085;-72
2023/01/13 11:45:25;;;;;;;0.00;0.00;;;10.10;99.90;;;;;;5047111;28;20458;-71
2023/01/13 11:47:56;;;;;;;0.20;0.20;;;9.90;99.90;;;;;;5045752;28;20028;-71
2023/01/13 11:50:38;;;;;;;3.53;0.55;;;9.90;99.90;;;;;;5048353;28;20045;-72
2023/01/13 11:53:25;;;;;;;0.00;0.00;;;10.10;99.90;;;;;;5047690;28;20021;-72
2023/01/13 11:56:23;;;;;;;0.10;0.10;;;10.40;99.90;;;;;;5047515;28;20078;-72
2023/01/13 11:59:03;;;;;;;0.40;0.30;;;10.40;99.90;;;;;;5048655;28;20033;-72
2023/01/13 12:01:59;;;;;;;0.00;0.00;;;10.30;99.90;;;;;;5047511;28;20029;-72
2023/01/13 12:04:33;;;;;;;0.00;0.00;;;10.30;99.90;;;;;;5047512;28;20029;-72
2023/01/13 12:07:15;;;;;;;0.00;0.00;;;10.40;99.90;;;;;;5047853;28;20151;-72
2023/01/13 12:09:58;;;;;;;0.00;0.00;;;10.50;99.90;;;;;;5048089;28;20102;-72
2023/01/13 12:12:38;;;;;;;0.13;0.10;;;10.50;99.90;;;;;;5046190;28;20719;-72
2023/01/13 12:15:37;;;;;;;0.00;0.00;;;10.50;99.90;;;;;;5045087;28;20052;-72
2023/01/13 12:18:18;;;;;;;0.00;0.00;;;10.60;99.90;;;;;;5046694;28;20082;-72
2023/01/13 12:20:58;;;;;;;0.00;0.00;;;10.80;99.90;;;;;;5047591;28;20420;-71
2023/01/13 12:23:35;;;;;;;0.00;0.00;;;10.70;99.90;;;;;;5046460;28;20028;-72
2023/01/13 12:26:11;;;;;;;0.00;0.00;;;11.00;99.90;;;;;;5046088;28;20021;-72
2023/01/13 12:29:17;;;;;;;0.00;0.00;;;11.30;99.90;;;;;;5045823;28;20025;-72
2023/01/13 12:31:47;;;;;;;0.00;0.00;;;11.80;99.90;;;;;;5043023;28;20037;-72
2023/01/13 12:34:24;;;;;;;0.00;0.00;;;12.10;99.90;;;;;;5046934;28;20025;-73
2023/01/13 12:37:05;;;;;;;0.00;0.00;;;12.30;99.90;;;;;;5046015;28;20614;-72
2023/01/13 12:40:09;;;;;;;0.00;0.00;;;12.60;99.90;;;;;;5046810;28;20021;-72
2023/01/13 12:45:38;;;;;;;0.00;0.00;;;13.00;99.90;;;;;;5044981;28;20044;-72
2023/01/13 12:48:04;;;;;;;0.00;0.00;;;13.10;98.70;;;;;;5046034;28;20466;-72
2023/01/13 12:50:30;;;;;;;0.75;0.32;;;13.00;99.10;;;;;;5046285;28;20359;-71
2023/01/13 12:53:19;;;;;;;0.00;0.00;;;13.10;98.60;;;;;;5045991;28;21439;-72
2023/01/13 12:55:50;;;;;;;0.40;0.25;;;13.10;98.60;;;;;;5044465;28;20120;-72
2023/01/13 12:58:17;;;;;;;0.00;0.00;;;13.10;99.30;;;;;;5046272;28;20568;-72
2023/01/13 13:00:44;;;;;;;0.20;0.20;;;13.10;99.20;;;;;;5044728;28;20039;-73
2023/01/13 13:03:12;;;;;;;0.00;0.00;;;13.10;98.40;;;;;;5045196;28;20494;-72
2023/01/13 13:05:50;;;;;;;0.00;0.00;;;12.90;98.50;;;;;;5045772;28;20060;-72
2023/01/13 13:08:33;;;;;;;0.60;0.60;;;12.60;99.40;;;;;;5044020;28;20037;-72
2023/01/13 13:13:16;;;;;;;0.00;0.00;;;12.40;99.90;;;;;;5044917;28;20028;-72
2023/01/13 13:13:55;;;;;;;0.00;0.00;;;12.30;99.90;;;;;;5045650;28;21260;-73
2023/01/13 13:16:28;;;;;;;0.00;0.00;;;12.30;99.90;;;;;;5047197;28;20033;-72
2023/01/13 13:19:21;;;;;;;0.00;0.00;;;12.10;99.90;;;;;;5045589;28;20051;-72
2023/01/13 13:22:05;;;;;;;0.20;0.20;;;12.00;99.90;;;;;;5045364;28;20922;-72
2023/01/13 13:24:31;;;;;;;0.43;0.43;;;12.00;99.90;;;;;;5044243;28;20017;-72
2023/01/13 13:27:14;;;;;;;0.00;0.00;;;11.80;99.90;;;;;;5045852;28;20029;-72
2023/01/13 13:30:21;;;;;;;0.00;0.00;;;11.70;99.90;;;;;;5043681;28;20028;-72
2023/01/13 13:33:23;;;;;;;0.38;0.38;;;11.60;99.90;;;;;;5029653;28;20083;-72
2023/01/13 13:36:23;;;;;;;0.40;0.40;;;11.50;99.90;;;;;;5044781;28;20075;-72
2023/01/13 13:47:11;;;;;;;0.00;0.00;;;10.90;99.90;;;;;;5045163;28;20043;-72
2023/01/13 13:49:44;;;;;;;0.00;0.00;;;10.80;99.90;;;;;;5045936;28;20029;-71
2023/01/13 13:52:24;;;;;;;0.00;0.00;;;10.50;99.90;;;;;;5043178;28;20255;-72
2023/01/13 13:54:54;;;;;;;0.00;0.00;;;10.40;99.90;;;;;;5045019;28;20025;-71
2023/01/13 13:57:44;;;;;;;0.00;0.00;;;10.30;99.90;;;;;;5043564;28;20036;-71
2023/01/13 14:00:22;;;;;;;0.00;0.00;;;10.20;99.90;;;;;;5044199;28;20352;-72
2023/01/13 14:02:55;;;;;;;0.00;0.00;;;10.00;99.90;;;;;;5045329;28;20033;-72
2023/01/13 14:05:22;;;;;;;0.00;0.00;;;9.90;99.90;;;;;;5043877;28;20021;-71
2023/01/13 14:08:09;;;;;;;0.00;0.00;;;9.70;99.90;;;;;;5046028;28;20021;-71
2023/01/13 14:10:40;;;;;;;0.00;0.00;;;9.60;99.90;;;;;;5033444;28;20056;-71
2023/01/13 14:13:32;;;;;;;0.00;0.00;;;9.60;99.90;;;;;;5044499;28;20057;-71
2023/01/13 14:16:06;;;;;;;0.00;0.00;;;9.50;99.90;;;;;;5039869;28;20035;-72